Time;durP1;ratioP1;P1;durP2;ratioP2;P2;SDS_P1;SDS_P2;PMS_P1;PMS_P2;Temp;Humidity;BMP_temperature;BMP_pressure;BME280_temperature;BME280_humidity;BME280_pressure;Samples;Min_cycle;Max_cycle;Signal;HPM_P1;HPM_P2
2022/03/31 00:01:19;;;;;;;15.10;6.53;;;;;;;15.85;47.26;93798.69;5053809;28;20430;-77
2022/03/31 00:03:47;;;;;;;21.50;8.03;;;;;;;15.78;47.26;93788.06;5053838;28;20911;-78
2022/03/31 00:06:13;;;;;;;14.60;6.83;;;;;;;15.64;47.85;93791.59;5034910;28;20438;-78
2022/03/31 00:08:40;;;;;;;20.10;7.03;;;;;;;15.55;48.57;93792.66;5053977;28;20915;-78
2022/03/31 00:11:09;;;;;;;17.17;6.97;;;;;;;15.51;49.01;93800.16;5053498;28;20438;-77
2022/03/31 00:20:39;;;;;;;16.57;6.77;;;;;;;15.46;48.71;93811.28;5040886;28;20818;-78
2022/03/31 00:23:06;;;;;;;19.03;7.43;;;;;;;15.58;47.87;93813.44;5053376;28;20453;-77
2022/03/31 00:25:33;;;;;;;18.93;6.63;;;;;;;15.61;48.41;93823.66;5053694;28;20548;-77
2022/03/31 00:28:04;;;;;;;20.60;7.60;;;;;;;15.65;48.12;93822.31;5053096;28;20446;-78
2022/03/31 00:30:32;;;;;;;20.00;6.17;;;;;;;15.66;49.31;93795.69;5052959;28;20442;-79
2022/03/31 00:32:59;;;;;;;23.47;6.27;;;;;;;15.60;48.75;93795.59;5052933;28;20473;-79
2022/03/31 00:35:27;;;;;;;18.63;6.10;;;;;;;15.67;49.26;93794.69;5053487;28;20915;-79
2022/03/31 00:37:54;;;;;;;31.63;6.40;;;;;;;15.78;48.48;93809.22;5053456;28;20495;-79
2022/03/31 00:40:21;;;;;;;25.07;6.47;;;;;;;15.88;48.92;93801.78;5053846;28;20429;-77
2022/03/31 00:42:51;;;;;;;16.30;5.40;;;;;;;16.04;48.25;93803.38;5053893;28;21329;-77
2022/03/31 00:51:45;;;;;;;21.23;6.50;;;;;;;16.15;47.35;93784.31;5015110;28;20969;-79
2022/03/31 00:54:13;;;;;;;28.00;6.73;;;;;;;16.21;47.65;93786.22;5015372;28;20514;-77
2022/03/31 00:56:41;;;;;;;23.83;6.40;;;;;;;16.26;47.72;93785.66;5014916;28;20938;-80
2022/03/31 00:59:10;;;;;;;37.90;6.90;;;;;;;16.20;47.96;93786.41;5015087;28;20447;-79
2022/03/31 01:01:40;;;;;;;21.23;6.63;;;;;;;16.24;48.16;93782.38;5015070;28;20470;-78
2022/03/31 01:04:07;;;;;;;20.97;6.57;;;;;;;16.28;47.48;93770.38;5015014;28;20969;-78
2022/03/31 01:06:35;;;;;;;10.87;5.20;;;;;;;16.29;47.88;93764.06;5014895;28;20426;-77
2022/03/31 01:09:03;;;;;;;26.80;6.40;;;;;;;16.32;48.19;93766.34;5015301;28;20570;-77
2022/03/31 01:11:30;;;;;;;20.93;7.00;;;;;;;16.33;48.00;93771.44;4982442;28;20439;-79
2022/03/31 01:13:57;;;;;;;20.07;5.63;;;;;;;16.34;48.63;93766.97;5056883;28;20477;-78
2022/03/31 01:16:24;;;;;;;19.43;5.50;;;;;;;16.40;49.28;93766.19;5055996;28;20453;-79
2022/03/31 01:18:53;;;;;;;15.67;8.10;;;;;;;16.39;49.29;93757.44;5055192;28;20487;-78
2022/03/31 01:21:20;;;;;;;16.80;5.57;;;;;;;16.35;49.32;93753.53;5056190;28;20481;-78
2022/03/31 01:23:48;;;;;;;21.27;6.23;;;;;;;16.32;49.42;93750.44;5038060;28;20452;-78
2022/03/31 01:26:21;;;;;;;20.37;5.53;;;;;;;16.31;50.49;93731.09;5056685;28;20441;-78
2022/03/31 01:28:47;;;;;;;49.07;8.50;;;;;;;16.21;50.58;93685.63;5038043;28;20437;-78
2022/03/31 01:31:14;;;;;;;31.07;6.67;;;;;;;16.18;51.17;93696.59;5056280;28;20449;-77
2022/03/31 01:33:41;;;;;;;23.43;6.70;;;;;;;16.16;51.30;93666.03;5056650;28;20801;-77
2022/03/31 01:36:08;;;;;;;26.50;7.60;;;;;;;16.12;51.30;93686.78;5056693;28;20851;-78
2022/03/31 01:38:35;;;;;;;23.90;6.37;;;;;;;16.11;51.68;93699.19;5056873;28;20430;-78
2022/03/31 01:41:06;;;;;;;35.73;6.63;;;;;;;16.10;52.60;93694.91;5038045;28;20803;-79
2022/03/31 01:43:33;;;;;;;24.50;6.23;;;;;;;16.15;51.65;93693.50;5056251;28;20793;-81
2022/03/31 01:46:00;;;;;;;27.70;6.20;;;;;;;16.11;52.27;93687.78;5055929;28;20446;-78
2022/03/31 01:48:27;;;;;;;18.50;6.40;;;;;;;16.09;52.27;93690.63;5056144;28;20925;-79
2022/03/31 01:50:53;;;;;;;27.70;6.57;;;;;;;16.14;52.00;93692.69;5056298;28;20446;-78
2022/03/31 01:53:21;;;;;;;20.10;6.17;;;;;;;16.11;52.23;93703.66;5055679;28;20485;-78
2022/03/31 01:55:47;;;;;;;30.27;7.50;;;;;;;16.18;51.91;93716.94;5055183;28;20507;-78
2022/03/31 01:58:16;;;;;;;31.77;6.70;;;;;;;16.23;51.81;93693.38;5055868;28;20476;-78
2022/03/31 02:00:44;;;;;;;22.90;5.30;;;;;;;16.29;51.98;93692.59;5055783;28;20441;-78
2022/03/31 02:03:11;;;;;;;22.27;5.93;;;;;;;16.32;52.69;93684.28;5055453;28;20548;-78
2022/03/31 02:05:38;;;;;;;15.33;5.83;;;;;;;16.39;52.90;93691.22;5055570;28;20448;-78
2022/03/31 02:08:05;;;;;;;17.03;5.40;;;;;;;16.41;53.10;93691.03;5055632;28;20979;-78
2022/03/31 02:10:32;;;;;;;19.43;5.63;;;;;;;16.48;52.97;93685.78;5055837;28;20438;-78
2022/03/31 02:12:59;;;;;;;30.70;6.47;;;;;;;16.49;52.57;93672.38;5037246;28;20442;-78
2022/03/31 02:15:29;;;;;;;21.10;6.20;;;;;;;16.55;52.32;93692.75;5055718;28;20488;-78
2022/03/31 02:17:56;;;;;;;17.87;5.93;;;;;;;16.61;51.78;93694.63;5053508;28;20438;-77
2022/03/31 02:20:24;;;;;;;20.17;6.57;;;;;;;16.61;51.67;93684.03;5055561;28;20500;-78
2022/03/31 02:22:51;;;;;;;19.60;5.97;;;;;;;16.61;51.80;93694.63;5055767;28;20442;-77
2022/03/31 02:25:18;;;;;;;19.33;6.10;;;;;;;16.64;51.65;93683.63;5055188;28;20434;-79
2022/03/31 02:27:46;;;;;;;29.13;8.43;;;;;;;16.70;52.07;93682.88;5055118;28;20453;-77
2022/03/31 02:30:13;;;;;;;20.47;6.80;;;;;;;16.77;51.42;93688.22;5055673;28;20445;-79
2022/03/31 02:32:42;;;;;;;26.30;5.50;;;;;;;16.79;50.90;93685.38;5055088;28;20455;-77
2022/03/31 02:35:11;;;;;;;31.40;7.23;;;;;;;16.91;51.38;93687.25;5055587;28;20485;-77
2022/03/31 02:37:38;;;;;;;16.80;7.50;;;;;;;16.89;48.19;93688.47;5055436;28;20438;-77
2022/03/31 02:40:07;;;;;;;22.23;8.67;;;;;;;16.85;47.34;93695.19;5055589;28;20542;-78
2022/03/31 02:42:35;;;;;;;25.87;6.63;;;;;;;16.63;47.68;93681.19;5036868;28;20783;-78
2022/03/31 02:45:02;;;;;;;27.10;7.40;;;;;;;16.25;47.98;93662.25;5054890;28;20499;-77
2022/03/31 02:47:30;;;;;;;14.07;5.63;;;;;;;16.24;48.37;93658.78;5055331;28;20437;-78
2022/03/31 02:49:59;;;;;;;20.77;6.63;;;;;;;16.09;49.08;93660.69;5055005;28;20426;-78
2022/03/31 02:52:26;;;;;;;20.90;6.60;;;;;;;15.90;49.32;93659.56;5019963;28;20445;-78
2022/03/31 02:57:37;;;;;;;18.30;6.00;;;;;;;15.67;49.83;93670.38;5054825;28;20548;-78
2022/03/31 03:00:05;;;;;;;27.77;7.27;;;;;;;15.69;50.17;93680.75;5054983;28;20464;-79
2022/03/31 03:02:32;;;;;;;20.67;6.80;;;;;;;15.64;49.76;93673.41;5036168;28;20532;-79
2022/03/31 03:05:01;;;;;;;26.73;6.53;;;;;;;15.60;50.67;93669.47;5055176;28;20437;-78
2022/03/31 03:07:28;;;;;;;28.67;8.47;;;;;;;15.56;50.50;93662.09;5054604;28;20446;-78
2022/03/31 03:09:55;;;;;;;28.50;8.77;;;;;;;15.58;49.51;93660.06;5055064;28;20464;-78
2022/03/31 03:12:22;;;;;;;45.13;19.40;;;;;;;15.61;50.24;93659.72;5054791;28;20445;-78
2022/03/31 03:14:51;;;;;;;52.80;23.10;;;;;;;15.34;51.29;93633.03;5036110;28;20520;-78
2022/03/31 03:17:18;;;;;;;17.00;7.43;;;;;;;15.17;52.26;93658.06;5054710;28;20472;-78
2022/03/31 03:19:45;;;;;;;22.53;7.47;;;;;;;15.22;52.10;93671.53;5019347;28;20453;-78
2022/03/31 03:22:13;;;;;;;22.33;9.63;;;;;;;15.26;51.75;93656.94;5054319;28;20446;-78
2022/03/31 03:24:40;;;;;;;22.57;7.37;;;;;;;15.31;51.48;93654.53;5054539;28;20441;-77
2022/03/31 03:27:07;;;;;;;16.17;7.47;;;;;;;15.29;51.36;93666.31;5054250;28;20807;-78
2022/03/31 03:29:34;;;;;;;22.73;7.97;;;;;;;15.29;51.16;93656.56;5054496;28;20442;-78
2022/03/31 03:32:01;;;;;;;40.13;9.73;;;;;;;15.24;51.31;93650.22;5054007;28;20441;-78
2022/03/31 03:34:28;;;;;;;22.93;7.60;;;;;;;15.24;51.48;93660.78;5054439;28;20470;-78
2022/03/31 03:36:55;;;;;;;29.90;7.33;;;;;;;15.22;51.63;93655.69;5054358;28;20446;-78
2022/03/31 03:39:23;;;;;;;14.87;6.03;;;;;;;15.16;51.14;93654.63;5053708;28;20452;-79
2022/03/31 03:41:50;;;;;;;22.60;7.53;;;;;;;15.20;51.48;93636.56;5054127;28;20862;-78
2022/03/31 03:44:17;;;;;;;18.57;7.27;;;;;;;15.05;51.41;93635.81;5035297;28;20442;-78
2022/03/31 03:46:44;;;;;;;16.27;6.70;;;;;;;14.81;53.23;93637.78;5053887;28;20434;-77
2022/03/31 03:49:11;;;;;;;32.53;8.23;;;;;;;14.72;52.83;93646.81;5054400;28;20468;-78
2022/03/31 03:51:37;;;;;;;29.40;7.13;;;;;;;14.74;52.57;93631.59;5054299;28;20465;-78
2022/03/31 03:54:04;;;;;;;31.60;8.97;;;;;;;14.63;52.78;93644.47;5053442;28;20485;-77
2022/03/31 03:56:33;;;;;;;18.10;7.80;;;;;;;14.64;52.44;93644.28;5034023;28;20449;-78
2022/03/31 03:58:59;;;;;;;21.03;7.80;;;;;;;14.57;53.55;93633.66;5017864;28;20446;-78
2022/03/31 04:01:27;;;;;;;23.77;7.10;;;;;;;14.64;53.96;93665.41;5033457;28;20446;-78
2022/03/31 04:03:53;;;;;;;19.63;7.93;;;;;;;14.66;52.06;93634.34;5034028;28;20446;-78
2022/03/31 04:06:20;;;;;;;21.07;9.57;;;;;;;14.71;53.04;93641.72;5033352;28;20933;-78
2022/03/31 04:08:47;;;;;;;26.40;7.43;;;;;;;14.66;52.47;93647.56;5033433;28;20910;-79
2022/03/31 04:11:14;;;;;;;15.80;8.20;;;;;;;14.55;54.44;93650.69;5033277;28;20485;-78
2022/03/31 04:13:42;;;;;;;13.57;7.17;;;;;;;14.53;52.51;93656.16;5033591;28;20455;-78
2022/03/31 04:16:09;;;;;;;20.60;9.43;;;;;;;14.62;52.85;93666.59;5033957;28;20457;-78
2022/03/31 04:18:38;;;;;;;17.43;8.00;;;;;;;14.69;57.71;93676.22;5033176;28;20447;-79
2022/03/31 04:21:05;;;;;;;18.53;7.90;;;;;;;14.57;52.43;93673.25;5033953;28;20493;-78
2022/03/31 04:23:32;;;;;;;14.67;7.17;;;;;;;14.60;52.78;93698.47;5033444;28;20446;-77
2022/03/31 04:25:59;;;;;;;28.33;9.43;;;;;;;14.59;52.37;93694.19;5033639;28;20431;-78
2022/03/31 04:28:26;;;;;;;18.83;7.47;;;;;;;14.66;52.10;93681.06;5033461;28;20449;-79
2022/03/31 04:30:54;;;;;;;17.83;7.20;;;;;;;14.66;52.03;93689.81;5014886;28;20964;-78
2022/03/31 04:33:21;;;;;;;22.63;8.70;;;;;;;14.65;51.93;93701.38;5033693;28;20465;-79
2022/03/31 04:35:48;;;;;;;21.57;8.00;;;;;;;14.62;52.28;93717.56;4998584;28;20486;-78
2022/03/31 04:38:15;;;;;;;23.67;8.00;;;;;;;14.59;52.67;93707.38;5033060;28;20466;-77
2022/03/31 04:40:41;;;;;;;29.37;8.27;;;;;;;14.41;54.25;93683.16;5033256;28;20454;-81
2022/03/31 04:43:08;;;;;;;28.30;6.60;;;;;;;14.71;57.78;93683.97;5031746;28;20446;-80
2022/03/31 04:45:35;;;;;;;19.90;5.70;;;;;;;14.94;56.32;93692.56;5031497;28;20455;-80
2022/03/31 04:48:04;;;;;;;29.70;7.60;;;;;;;15.12;56.78;93686.91;5013243;28;20446;-78
2022/03/31 04:50:31;;;;;;;31.17;7.20;;;;;;;15.34;57.40;93658.66;4996477;28;20442;-80
2022/03/31 04:52:58;;;;;;;31.67;6.67;;;;;;;15.53;57.55;93628.09;5043605;28;20476;-78
2022/03/31 04:55:25;;;;;;;23.43;6.10;;;;;;;15.65;58.18;93651.25;5051348;28;21003;-78
2022/03/31 04:57:52;;;;;;;37.23;7.73;;;;;;;15.70;57.61;93642.72;5051845;28;20453;-79
2022/03/31 05:00:19;;;;;;;28.30;7.47;;;;;;;15.80;58.12;93681.03;5016283;28;20446;-81
2022/03/31 05:02:46;;;;;;;28.27;9.73;;;;;;;15.81;58.50;93697.75;5052185;28;20476;-78
2022/03/31 05:05:15;;;;;;;20.57;6.20;;;;;;;15.92;56.83;93712.28;5034035;28;20465;-79
2022/03/31 05:07:42;;;;;;;21.47;6.90;;;;;;;15.99;56.40;93698.09;5052791;28;20446;-78
2022/03/31 05:10:10;;;;;;;25.70;7.00;;;;;;;16.20;54.63;93691.13;5052530;28;20436;-77
2022/03/31 05:12:37;;;;;;;34.00;8.30;;;;;;;16.23;55.17;93682.78;5052322;28;20206;-78
2022/03/31 05:15:04;;;;;;;27.13;6.40;;;;;;;16.14;56.36;93689.22;5033004;28;20477;-80
2022/03/31 05:17:34;;;;;;;33.70;7.53;;;;;;;16.27;54.99;93691.97;5052510;28;20442;-79
2022/03/31 05:20:05;;;;;;;23.83;6.33;;;;;;;16.33;54.83;93707.91;5052893;28;20570;-79
2022/03/31 05:22:35;;;;;;;25.20;6.10;;;;;;;16.34;55.19;93708.72;5052970;28;20440;-78
2022/03/31 05:25:02;;;;;;;22.87;6.13;;;;;;;16.31;56.04;93709.94;5034287;28;20449;-78
2022/03/31 05:27:29;;;;;;;20.10;7.40;;;;;;;16.23;56.95;93728.59;5052670;28;20454;-79
2022/03/31 05:29:56;;;;;;;18.20;6.77;;;;;;;16.10;58.25;93728.50;5006134;28;20934;-78
2022/03/31 05:32:24;;;;;;;21.17;7.17;;;;;;;15.85;57.65;93729.91;5036086;28;20967;-78
2022/03/31 05:34:51;;;;;;;27.93;7.67;;;;;;;15.76;58.37;93743.28;5051895;28;20493;-80
2022/03/31 05:37:18;;;;;;;32.10;8.00;;;;;;;15.64;60.01;93755.38;5056351;28;20824;-78
2022/03/31 05:39:46;;;;;;;20.27;7.43;;;;;;;15.55;65.00;93753.81;5055634;28;20796;-79
2022/03/31 05:42:13;;;;;;;10.80;5.90;;;;;;;15.51;60.01;93752.56;5056493;28;20445;-78
2022/03/31 05:44:40;;;;;;;26.30;7.30;;;;;;;15.51;61.28;93776.34;5056683;28;20438;-78
2022/03/31 05:47:08;;;;;;;20.03;8.17;;;;;;;15.41;60.55;93765.28;5045146;28;20553;-78
2022/03/31 05:49:35;;;;;;;24.43;7.60;;;;;;;15.44;60.62;93760.44;5036578;28;20508;-79
2022/03/31 05:52:02;;;;;;;25.37;6.70;;;;;;;15.34;60.39;93743.25;5035948;28;21240;-78
2022/03/31 05:54:30;;;;;;;25.43;7.40;;;;;;;15.18;61.12;93731.06;5036110;28;20443;-79
2022/03/31 05:56:59;;;;;;;25.30;7.20;;;;;;;15.16;61.50;93727.78;5036730;28;20458;-79
2022/03/31 05:59:25;;;;;;;27.07;7.23;;;;;;;15.08;62.73;93701.50;5036303;28;20462;-78
2022/03/31 06:01:52;;;;;;;36.67;8.77;;;;;;;15.06;62.41;93699.03;5034620;28;20450;-80
2022/03/31 06:04:21;;;;;;;29.73;8.30;;;;;;;15.11;62.55;93688.72;5034219;28;20461;-79
2022/03/31 06:06:48;;;;;;;36.13;8.70;;;;;;;15.09;62.46;93703.94;5034662;28;20504;-79
2022/03/31 06:09:15;;;;;;;20.90;6.93;;;;;;;15.12;62.31;93694.81;5034309;28;20447;-79
2022/03/31 06:11:42;;;;;;;42.53;7.93;;;;;;;15.11;63.17;93720.44;5034234;28;20451;-78
2022/03/31 06:14:11;;;;;;;21.47;6.73;;;;;;;15.17;62.52;93716.22;5034136;28;20456;-78
2022/03/31 06:16:38;;;;;;;23.70;7.27;;;;;;;15.17;62.01;93697.72;5034055;28;20490;-79
2022/03/31 06:19:08;;;;;;;36.73;7.50;;;;;;;15.11;62.27;93680.78;5034605;28;20443;-79
2022/03/31 06:21:35;;;;;;;25.83;6.93;;;;;;;15.05;62.16;93670.16;4999779;28;20463;-79
2022/03/31 06:24:02;;;;;;;30.10;7.70;;;;;;;15.12;61.69;93689.53;5034277;28;20455;-79
2022/03/31 06:26:29;;;;;;;36.40;8.83;;;;;;;15.32;61.57;93698.47;5034097;28;20451;-78
2022/03/31 06:28:56;;;;;;;34.07;8.73;;;;;;;15.41;62.74;93683.31;5033944;28;20829;-78
2022/03/31 06:31:25;;;;;;;31.20;8.57;;;;;;;15.40;57.79;93703.66;5033783;28;20450;-79
2022/03/31 06:33:53;;;;;;;26.97;8.20;;;;;;;15.42;58.09;93706.94;5034082;28;20545;-78
2022/03/31 06:36:20;;;;;;;18.13;7.60;;;;;;;15.55;59.04;93723.91;5033823;28;20486;-78
2022/03/31 06:38:47;;;;;;;22.57;8.40;;;;;;;15.64;59.58;93733.41;5033792;28;20453;-79
2022/03/31 06:41:15;;;;;;;23.20;8.70;;;;;;;15.69;59.42;93734.47;5033065;28;20458;-79
2022/03/31 06:43:46;;;;;;;20.47;8.23;;;;;;;15.67;60.14;93725.09;5033994;28;20541;-79
2022/03/31 06:46:13;;;;;;;24.57;8.73;;;;;;;15.32;60.73;93750.50;5031434;28;20454;-79
2022/03/31 06:48:46;;;;;;;23.50;8.13;;;;;;;15.24;60.49;93753.28;5033539;28;20446;-79
2022/03/31 06:51:13;;;;;;;31.90;8.13;;;;;;;15.35;60.39;93735.13;5033550;28;20809;-80
2022/03/31 06:53:41;;;;;;;23.97;7.90;;;;;;;15.40;59.44;93732.72;5033422;28;21023;-79
2022/03/31 06:56:10;;;;;;;20.43;7.80;;;;;;;15.33;59.44;93731.03;5033252;28;20482;-79
2022/03/31 06:58:38;;;;;;;31.53;8.27;;;;;;;15.41;59.69;93737.00;5033254;28;20454;-79
2022/03/31 07:01:06;;;;;;;28.77;7.80;;;;;;;15.44;59.17;93741.91;5033480;28;20446;-79
2022/03/31 07:03:33;;;;;;;27.10;11.30;;;;;;;15.62;59.12;93743.34;5033561;28;20453;-78
2022/03/31 07:06:02;;;;;;;37.33;15.37;;;;;;;15.50;58.39;93719.19;5033397;28;20450;-78
2022/03/31 07:08:30;;;;;;;33.43;9.10;;;;;;;15.40;59.06;93729.28;5033084;28;20841;-78
2022/03/31 07:10:57;;;;;;;27.13;9.57;;;;;;;15.62;58.95;93748.66;5033061;28;20934;-78
2022/03/31 07:13:24;;;;;;;33.50;11.07;;;;;;;15.69;58.21;93728.38;5031079;28;20449;-78
2022/03/31 07:15:50;;;;;;;23.40;9.63;;;;;;;15.79;59.04;93718.28;5033209;28;20486;-78
2022/03/31 07:18:17;;;;;;;42.83;17.87;;;;;;;15.76;58.17;93726.59;5033036;28;20453;-79
2022/03/31 07:20:44;;;;;;;37.87;11.87;;;;;;;15.79;57.83;93697.09;5030680;28;20483;-79
2022/03/31 07:23:13;;;;;;;21.13;7.57;;;;;;;15.68;58.34;93681.78;5032802;28;20449;-78
2022/03/31 07:25:40;;;;;;;24.93;7.77;;;;;;;15.71;58.81;93692.78;5051469;28;20438;-78
2022/03/31 07:28:07;;;;;;;25.83;9.90;;;;;;;15.86;59.08;93691.88;5053958;28;20457;-78
2022/03/31 07:30:34;;;;;;;30.73;8.30;;;;;;;15.96;58.88;93687.91;5054156;28;20450;-78
2022/03/31 07:33:03;;;;;;;20.80;7.23;;;;;;;16.06;59.84;93706.06;5054163;28;20947;-79
2022/03/31 07:35:33;;;;;;;24.27;7.87;;;;;;;16.19;58.78;93718.56;5053830;28;20478;-78
2022/03/31 07:38:03;;;;;;;23.00;7.50;;;;;;;16.14;58.28;93692.69;5054298;28;20442;-80
2022/03/31 07:40:32;;;;;;;32.37;7.37;;;;;;;15.90;58.85;93714.28;5053849;28;20460;-78
2022/03/31 07:42:59;;;;;;;18.77;7.73;;;;;;;15.99;58.53;93721.91;5053916;28;20450;-79
2022/03/31 07:45:26;;;;;;;28.73;8.23;;;;;;;16.10;58.75;93729.31;5054229;28;20541;-78
2022/03/31 07:47:53;;;;;;;25.73;9.20;;;;;;;16.24;58.72;93708.25;5054216;28;20524;-79
2022/03/31 07:50:20;;;;;;;22.57;6.93;;;;;;;16.29;57.92;93674.88;5053903;28;20453;-78
2022/03/31 07:52:48;;;;;;;30.70;8.20;;;;;;;16.21;58.65;93692.75;5053134;28;20952;-78
2022/03/31 07:55:17;;;;;;;32.97;10.67;;;;;;;16.28;58.01;93712.97;5053535;28;20477;-78
2022/03/31 07:57:46;;;;;;;30.03;8.17;;;;;;;16.34;57.69;93698.13;5053875;28;20782;-79
2022/03/31 08:00:15;;;;;;;17.63;6.73;;;;;;;16.24;58.55;93718.84;5053689;28;20449;-79
2022/03/31 08:02:48;;;;;;;29.70;7.67;;;;;;;16.27;58.29;93702.56;5035423;28;20450;-79
2022/03/31 08:05:18;;;;;;;21.33;6.57;;;;;;;16.28;57.67;93701.56;5053787;28;20426;-78
2022/03/31 08:07:44;;;;;;;26.77;9.50;;;;;;;16.34;57.81;93684.88;5053449;28;20536;-79
2022/03/31 08:10:11;;;;;;;36.53;7.97;;;;;;;16.36;57.93;93688.16;5053766;28;20452;-79
2022/03/31 08:12:39;;;;;;;15.47;6.90;;;;;;;16.51;57.39;93694.16;5054035;28;20449;-78
2022/03/31 08:15:10;;;;;;;22.00;6.97;;;;;;;16.68;58.08;93721.16;5053826;28;20786;-78
2022/03/31 08:17:38;;;;;;;40.37;8.47;;;;;;;16.76;57.44;93714.88;5053215;28;20442;-78
2022/03/31 08:20:06;;;;;;;23.00;7.30;;;;;;;16.66;56.81;93680.81;5053872;28;20512;-78
2022/03/31 08:22:33;;;;;;;27.33;6.30;;;;;;;16.72;56.93;93695.91;5053562;28;20452;-79
2022/03/31 08:25:00;;;;;;;20.83;7.10;;;;;;;16.82;57.34;93695.56;5053870;28;20531;-78
2022/03/31 08:27:27;;;;;;;33.00;6.37;;;;;;;16.84;56.50;93672.34;5053486;28;20441;-79
2022/03/31 08:29:55;;;;;;;24.73;5.47;;;;;;;16.80;55.73;93650.72;5053723;28;20433;-78
2022/03/31 08:32:23;;;;;;;23.23;6.60;;;;;;;16.79;56.06;93656.22;5053678;28;20818;-79
2022/03/31 08:34:50;;;;;;;27.53;8.27;;;;;;;16.78;56.35;93663.34;5034557;28;20441;-79
2022/03/31 08:37:18;;;;;;;34.87;7.50;;;;;;;16.71;56.60;93663.31;5053185;28;20481;-80
2022/03/31 08:39:45;;;;;;;20.50;6.20;;;;;;;16.67;57.06;93669.19;5034696;28;20434;-79
2022/03/31 08:42:12;;;;;;;29.07;7.23;;;;;;;16.66;57.03;93675.50;5052939;28;20445;-79
2022/03/31 08:44:39;;;;;;;25.80;7.23;;;;;;;16.73;56.58;93661.28;5053326;28;20454;-79
2022/03/31 08:47:09;;;;;;;13.47;6.63;;;;;;;16.89;56.63;93665.44;5053543;28;20522;-77
2022/03/31 08:49:37;;;;;;;17.90;6.63;;;;;;;16.88;56.40;93655.84;5052849;28;20499;-79
2022/03/31 08:52:05;;;;;;;39.77;7.43;;;;;;;17.00;56.52;93672.78;5052707;28;20441;-79
2022/03/31 08:54:32;;;;;;;21.40;6.40;;;;;;;16.92;56.41;93648.31;5053210;28;20457;-80
2022/03/31 08:56:59;;;;;;;21.50;7.83;;;;;;;16.89;56.31;93668.09;5052851;28;20481;-78
2022/03/31 08:59:27;;;;;;;41.13;7.20;;;;;;;16.93;56.16;93655.25;5052776;28;20449;-78
2022/03/31 09:01:53;;;;;;;32.00;6.53;;;;;;;16.97;56.60;93656.47;5034357;28;20442;-79
2022/03/31 09:04:21;;;;;;;28.13;6.97;;;;;;;17.00;56.35;93641.00;5055389;28;20468;-76
2022/03/31 09:07:02;;;;;;;25.57;6.53;;;;;;;17.07;55.99;93640.22;5056842;28;20817;-79
2022/03/31 09:09:29;;;;;;;20.40;5.80;;;;;;;17.15;55.67;93648.78;5056621;28;20928;-79
2022/03/31 09:11:56;;;;;;;33.73;6.53;;;;;;;17.14;56.29;93625.94;5021519;28;20434;-79
2022/03/31 09:14:29;;;;;;;30.00;6.87;;;;;;;17.14;56.10;93641.84;5055533;28;20472;-78
2022/03/31 09:16:56;;;;;;;18.50;6.07;;;;;;;17.16;56.01;93626.56;5036577;28;20477;-80
2022/03/31 09:19:25;;;;;;;18.00;5.20;;;;;;;17.15;55.83;93627.59;5056379;28;20924;-80
2022/03/31 09:21:57;;;;;;;19.53;7.10;;;;;;;17.23;55.85;93634.53;5021934;28;20535;-80
2022/03/31 09:24:26;;;;;;;34.37;8.50;;;;;;;17.36;56.26;93644.34;5056828;28;20454;-80
2022/03/31 09:26:53;;;;;;;27.10;8.20;;;;;;;17.49;54.63;93662.94;5056873;28;20483;-80
2022/03/31 09:29:23;;;;;;;27.03;8.33;;;;;;;17.56;55.25;93653.94;5056524;28;20912;-78
2022/03/31 09:31:51;;;;;;;21.13;7.50;;;;;;;17.69;54.64;93650.53;5056609;28;20453;-78
2022/03/31 09:34:19;;;;;;;18.50;5.40;;;;;;;17.84;54.45;93621.94;5056398;28;20430;-79
2022/03/31 09:36:50;;;;;;;23.10;7.50;;;;;;;18.01;53.82;93625.00;5056584;28;20483;-79
2022/03/31 09:39:19;;;;;;;25.20;6.77;;;;;;;18.14;53.50;93585.13;5021091;28;20788;-79
2022/03/31 09:41:50;;;;;;;25.43;6.33;;;;;;;18.10;52.76;93599.03;5056363;28;20441;-78
2022/03/31 09:44:19;;;;;;;21.13;7.20;;;;;;;18.23;52.73;93599.03;5056365;28;20454;-79
2022/03/31 09:46:47;;;;;;;18.70;6.77;;;;;;;18.09;53.42;93598.22;5055917;28;20529;-79
2022/03/31 09:49:15;;;;;;;24.20;6.40;;;;;;;18.19;52.83;93597.78;5055727;28;20442;-79
2022/03/31 09:51:48;;;;;;;13.80;7.40;;;;;;;18.22;52.75;93598.22;5055196;28;20442;-79
2022/03/31 09:54:16;;;;;;;28.27;7.07;;;;;;;18.24;53.00;93619.25;5056226;28;20995;-79
2022/03/31 09:56:45;;;;;;;21.17;6.93;;;;;;;18.39;52.84;93619.81;5055533;28;20843;-79
2022/03/31 09:59:14;;;;;;;20.50;6.57;;;;;;;18.43;52.51;93618.38;5056249;28;20445;-78
2022/03/31 10:01:42;;;;;;;16.63;6.00;;;;;;;18.47;52.19;93606.28;5020724;28;20438;-79
2022/03/31 10:04:11;;;;;;;18.17;6.63;;;;;;;18.61;52.61;93606.25;5055872;28;20450;-79
2022/03/31 10:06:39;;;;;;;18.63;8.07;;;;;;;18.60;51.95;93570.91;5056509;28;20429;-79
2022/03/31 10:09:07;;;;;;;19.43;6.90;;;;;;;18.54;52.39;93569.09;5056489;28;20449;-79
2022/03/31 10:11:38;;;;;;;21.40;5.63;;;;;;;18.62;51.74;93581.31;5055909;28;20449;-78
2022/03/31 10:14:19;;;;;;;20.43;6.40;;;;;;;18.64;51.54;93577.44;5055368;28;20800;-79
2022/03/31 10:16:50;;;;;;;30.40;7.13;;;;;;;18.66;51.28;93590.53;5055121;28;20484;-79
2022/03/31 10:19:27;;;;;;;32.70;9.00;;;;;;;18.66;51.80;93593.19;5020245;28;20442;-79
2022/03/31 10:21:59;;;;;;;24.97;5.37;;;;;;;18.67;51.56;93581.53;5020731;28;20481;-78
2022/03/31 10:24:45;;;;;;;22.33;4.93;;;;;;;18.70;51.12;93567.81;5055437;28;20434;-79
2022/03/31 10:27:25;;;;;;;26.10;7.07;;;;;;;18.76;51.19;93557.16;5055384;28;20453;-79
2022/03/31 10:29:53;;;;;;;24.80;7.30;;;;;;;18.82;51.50;93555.50;5055635;28;20445;-79
2022/03/31 10:32:22;;;;;;;20.40;5.50;;;;;;;18.75;51.38;93566.16;5054970;28;20444;-79
2022/03/31 10:34:51;;;;;;;25.33;5.20;;;;;;;18.86;51.61;93572.66;5020286;28;20460;-78
2022/03/31 10:37:32;;;;;;;14.17;6.00;;;;;;;19.04;51.75;93570.06;5054916;28;20839;-78
2022/03/31 10:40:00;;;;;;;29.57;6.40;;;;;;;19.21;51.21;93569.56;5055181;28;20505;-78
2022/03/31 10:42:26;;;;;;;22.77;7.90;;;;;;;19.26;50.72;93548.47;5055075;28;20537;-78
2022/03/31 10:45:13;;;;;;;20.80;6.13;;;;;;;19.27;50.02;93534.94;5055009;28;20450;-79
2022/03/31 10:47:41;;;;;;;34.10;8.80;;;;;;;19.33;50.10;93520.78;5055051;28;20446;-79
2022/03/31 10:50:11;;;;;;;13.07;5.07;;;;;;;19.05;50.42;93537.13;5055395;28;20444;-79
2022/03/31 10:52:38;;;;;;;27.47;5.90;;;;;;;18.99;51.11;93526.56;5055643;28;20430;-79
2022/03/31 10:55:08;;;;;;;23.17;5.33;;;;;;;19.02;50.52;93521.63;5055390;28;20753;-79
2022/03/31 10:57:43;;;;;;;32.20;6.43;;;;;;;19.01;50.78;93512.00;5055193;28;20493;-78
2022/03/31 11:00:15;;;;;;;25.80;7.03;;;;;;;19.13;50.78;93520.13;5055056;28;20437;-79
2022/03/31 11:02:44;;;;;;;32.87;9.03;;;;;;;19.19;50.62;93544.00;5054684;28;20940;-78
2022/03/31 11:05:11;;;;;;;22.40;7.00;;;;;;;19.32;50.46;93532.44;5054847;28;20449;-79
2022/03/31 11:07:39;;;;;;;31.53;6.80;;;;;;;19.36;50.02;93530.97;5054480;28;20450;-78
2022/03/31 11:10:07;;;;;;;25.53;6.23;;;;;;;19.48;49.38;93523.94;5054256;28;20513;-78
2022/03/31 11:12:36;;;;;;;33.03;7.80;;;;;;;19.47;49.81;93532.13;5054618;28;20429;-79
2022/03/31 11:15:05;;;;;;;20.67;6.63;;;;;;;19.60;49.29;93533.88;5055231;28;20488;-78
2022/03/31 11:17:34;;;;;;;25.70;5.40;;;;;;;19.61;49.08;93549.63;5054701;28;20573;-79
2022/03/31 11:20:06;;;;;;;20.03;4.77;;;;;;;19.42;49.21;93524.00;5054708;28;20477;-79
2022/03/31 11:22:33;;;;;;;24.33;7.67;;;;;;;19.44;49.10;93521.94;5054951;28;20500;-78
2022/03/31 11:25:09;;;;;;;15.77;5.40;;;;;;;19.63;49.02;93499.66;5054714;28;20430;-79
2022/03/31 11:27:38;;;;;;;26.47;5.70;;;;;;;19.76;49.44;93509.38;5054672;28;20461;-79
2022/03/31 11:30:08;;;;;;;23.57;6.00;;;;;;;19.84;48.67;93500.28;5054393;28;20437;-79
2022/03/31 11:32:37;;;;;;;26.00;6.17;;;;;;;19.86;48.42;93514.19;5053742;28;20448;-79
2022/03/31 11:35:06;;;;;;;34.23;7.17;;;;;;;19.89;48.59;93511.91;5018979;28;20448;-79
2022/03/31 11:37:32;;;;;;;24.33;6.17;;;;;;;19.98;48.67;93523.09;5018768;28;20832;-79
2022/03/31 11:39:59;;;;;;;20.20;7.00;;;;;;;20.04;49.23;93524.88;5018844;28;20446;-80
2022/03/31 11:42:26;;;;;;;24.50;6.93;;;;;;;20.08;49.06;93531.38;5053125;28;20445;-80
2022/03/31 11:44:53;;;;;;;18.37;5.40;;;;;;;20.08;48.13;93513.56;5053408;28;20453;-79